Trabzon — 9HA2783 — position and weather

sailwx.info

Track history (hours):
 
Tides and Currents Weather Stations Pressure Air Temp Water Temp Dewpoint Dewpoint Depression Visibility Wind Speed Wind Dir Waves Ship Positions

Trabzon

Last reported at 2015-Jul-29 01:09 UTC. Time now 2015-Aug-02 06:22 UTC.
Position N 59°07' E 004°12'.

Length 229 m; draft 9.3 m.

Type: Cargo ship. MMSI: 215679000.

Date/timePositionNaut miles runAvg speedWind from/ knotsBaromVisibWave heightAir tempDewpointWater temp
2015-Jul-29 01:09N 59°07' E 004°12'710.9
2015-Jul-29 00:33N 59°01' E 004°12'3511.1
2015-Jul-28 21:23N 58°26' E 004°09'1011.6
2015-Jul-28 20:33N 58°16' E 004°09'28310.5
2015-Jul-27 17:34N 53°56' E 000°50'1212.5
2015-Jul-27 16:33N 53°48' E 000°34'1211.4
2015-Jul-27 15:33N 53°38' E 000°22'1010.3
2015-Jul-27 14:33N 53°33' E 000°08'1111.2
2015-Jul-27 13:34N 53°38' W 000°09'1 1.5
2015-Jul-27 12:32N 53°38' W 000°12'0 0.0
2015-Jul-27 11:32N 53°38' W 000°12'0 0.0
2015-Jul-27 10:32N 53°38' W 000°12'0 0.0
2015-Jul-27 09:32N 53°38' W 000°12'0 0.0
2015-Jul-27 08:32N 53°38' W 000°12'0 0.0
2015-Jul-27 07:32N 53°38' W 000°12'0 0.0
2015-Jul-27 06:32N 53°38' W 000°12'0 0.0
2015-Jul-27 05:32N 53°38' W 000°12'0 0.0
2015-Jul-27 04:32N 53°38' W 000°12'0 0.0
2015-Jul-27 03:32N 53°38' W 000°12'0 0.0
2015-Jul-27 02:32N 53°38' W 000°12'0 0.0
2015-Jul-27 01:32N 53°38' W 000°12'0 0.0
2015-Jul-27 00:32N 53°38' W 000°12'0 0.0
2015-Jul-26 23:32N 53°38' W 000°12'0 0.0
2015-Jul-26 22:32N 53°38' W 000°12'0 0.0
2015-Jul-26 21:32N 53°38' W 000°12'0 0.0
2015-Jul-26 20:32N 53°38' W 000°12'0 0.0
2015-Jul-26 19:32N 53°38' W 000°12'0 0.0
2015-Jul-26 18:32N 53°38' W 000°12'0 0.0
2015-Jul-26 17:32N 53°38' W 000°12'0 0.0
2015-Jul-26 16:32N 53°38' W 000°12'0 0.0
2015-Jul-26 15:32N 53°38' W 000°12'0 0.0
2015-Jul-26 14:32N 53°38' W 000°12'0 0.0
2015-Jul-26 13:32N 53°38' W 000°12'0 0.0
2015-Jul-26 12:32N 53°38' W 000°12'0 0.0
2015-Jul-26 11:32N 53°38' W 000°12'0 0.0
2015-Jul-26 10:32N 53°38' W 000°12'0 0.0
2015-Jul-26 09:32N 53°38' W 000°12'0 0.0
2015-Jul-26 08:32N 53°38' W 000°12'0 0.0
2015-Jul-26 07:32N 53°38' W 000°12'0 0.0
2015-Jul-26 06:32N 53°38' W 000°12'0 0.0
2015-Jul-26 05:32N 53°38' W 000°12'0 0.0
2015-Jul-26 04:32N 53°38' W 000°12'0 0.0
2015-Jul-26 03:32N 53°38' W 000°12'0 0.0
2015-Jul-26 02:32N 53°38' W 000°12'0 0.0
2015-Jul-26 01:29N 53°38' W 000°12'0 0.0
2015-Jul-26 00:32N 53°38' W 000°12'0 0.0
2015-Jul-25 23:32N 53°38' W 000°12'0 0.0
2015-Jul-25 22:32N 53°38' W 000°12'0 0.0
2015-Jul-25 21:32N 53°38' W 000°12'0 0.0
2015-Jul-25 20:32N 53°38' W 000°12'0 0.0
2015-Jul-25 19:32N 53°38' W 000°12'0 0.0
2015-Jul-25 18:32N 53°38' W 000°12'0 0.0
2015-Jul-25 17:32N 53°38' W 000°12'0 0.0
2015-Jul-25 16:32N 53°38' W 000°12'0 0.0
2015-Jul-25 15:32N 53°38' W 000°12'0 0.0
2015-Jul-25 14:32N 53°38' W 000°12'0 0.0
2015-Jul-25 13:29N 53°38' W 000°12'0 0.0
2015-Jul-25 12:32N 53°38' W 000°12'0 0.0
2015-Jul-25 11:29N 53°38' W 000°12'0 0.0
2015-Jul-25 10:29N 53°38' W 000°12'0 0.0
2015-Jul-25 09:32N 53°38' W 000°12'0 0.0
2015-Jul-25 08:32N 53°38' W 000°12'0 0.0
2015-Jul-25 07:32N 53°38' W 000°12'0 0.0
2015-Jul-25 06:32N 53°38' W 000°12'0 0.0
2015-Jul-25 05:32N 53°38' W 000°12'0 0.0
2015-Jul-25 04:32N 53°38' W 000°12'0 0.0
2015-Jul-25 03:32N 53°38' W 000°12'0 0.0
2015-Jul-25 02:32N 53°38' W 000°12'0 0.0
2015-Jul-25 01:32N 53°38' W 000°12'0 0.0
2015-Jul-25 00:32N 53°38' W 000°12'0 0.4
2015-Jul-24 23:34N 53°38' W 000°11'5 5.1
2015-Jul-24 22:33N 53°37' W 000°03'9 9.1
2015-Jul-24 21:33N 53°33' E 000°11'1010.1
2015-Jul-24 20:33N 53°41' E 000°22'3 2.8
2015-Jul-24 19:33N 53°42' E 000°27'5 4.7
2015-Jul-24 18:33N 53°45' E 000°32'1 1.3
2015-Jul-24 17:33N 53°46' E 000°33'6 6.1
2015-Jul-24 16:33N 53°51' E 000°39'31010.6
2015-Jul-23 11:25N 56°57' E 007°55'2 2.1
2015-Jul-23 10:32N 56°59' E 007°56'2 2.2
2015-Jul-23 09:32N 56°57' E 007°56'5 5.1
2015-Jul-23 08:33N 57°00' E 007°50'1010.3
2015-Jul-23 07:33N 57°09' E 007°59'6410.2
2015-Jul-23 01:20N 57°48' E 009°33'1810.0
2015-Jul-22 23:30N 57°51' E 010°07'9 9.9
2015-Jul-22 22:33N 57°51' E 010°25'10 9.6
2015-Jul-22 21:33N 57°49' E 010°43'8 8.2
2015-Jul-22 20:32N 57°42' E 010°49'5 2.5
2015-Jul-22 18:30N 57°40' E 010°41'0 0.0
2015-Jul-22 17:24N 57°40' E 010°41'0 0.0
2015-Jul-22 16:30N 57°40' E 010°41'0 0.1
2015-Jul-22 15:33N 57°40' E 010°41'0 0.0
2015-Jul-22 14:33N 57°40' E 010°40'0 0.0
2015-Jul-22 13:33N 57°40' E 010°40'0 0.0
2015-Jul-22 12:33N 57°40' E 010°40'0 0.0
2015-Jul-22 11:21N 57°40' E 010°40'3 3.4
2015-Jul-22 10:33N 57°38' E 010°45'1111.0
2015-Jul-22 09:33N 57°34' E 011°03'1111.4
2015-Jul-22 08:33N 57°29' E 011°23'1211.9
2015-Jul-22 07:33N 57°18' E 011°32'1211.9
2015-Jul-22 06:33N 57°07' E 011°39'1211.5
2015-Jul-22 05:33N 56°56' E 011°46'1111.1
2015-Jul-22 04:33N 56°46' E 011°53'1211.8
2015-Jul-22 03:33N 56°35' E 011°43'8310.4
2015-Jul-21 19:33N 55°14' E 011°06'10 9.6
2015-Jul-21 18:31N 55°05' E 010°59'1110.5
2015-Jul-21 17:31N 54°55' E 010°52'1111.4
2015-Jul-21 16:31N 54°44' E 010°47'9 9.8
2015-Jul-21 15:33N 54°37' E 010°57'1111.1
2015-Jul-21 14:33N 54°34' E 011°16'1111.2
2015-Jul-21 13:33N 54°30' E 011°34'1110.7
2015-Jul-21 12:33N 54°27' E 011°51'1110.8
2015-Jul-21 11:33N 54°27' E 012°10'1110.8
2015-Jul-21 10:33N 54°37' E 012°17'5410.9
2015-Jul-21 05:33N 54°60' E 013°42'1211.7
2015-Jul-21 04:33N 55°04' E 014°02'1111.4
2015-Jul-21 03:33N 55°12' E 014°15'1211.6
2015-Jul-21 02:33N 55°21' E 014°28'1111.4
2015-Jul-21 01:33N 55°28' E 014°44'1211.9
2015-Jul-21 00:33N 55°33' E 015°03'1211.9
2015-Jul-20 23:33N 55°38' E 015°22'1211.7
2015-Jul-20 22:33N 55°42' E 015°42'  
Track history (hours):
 
Tides and Currents Weather Stations Pressure Air Temp Water Temp Dewpoint Dewpoint Depression Visibility Wind Speed Wind Dir Waves Ship Positions

Trabzon

Last reported at 2015-Jul-29 01:09 UTC. Time now 2015-Aug-02 06:22 UTC.
Position N 59°07' E 004°12'.

Length 229 m; draft 9.3 m.

Type: Cargo ship. MMSI: 215679000.

Date/timePositionNaut miles runAvg speedWind from/ knotsBaromVisibWave heightAir tempDewpointWater temp
2015-Jul-29 01:09N 59°07' E 004°12'710.9
2015-Jul-29 00:33N 59°01' E 004°12'3511.1
2015-Jul-28 21:23N 58°26' E 004°09'1011.6
2015-Jul-28 20:33N 58°16' E 004°09'28310.5
2015-Jul-27 17:34N 53°56' E 000°50'1212.5
2015-Jul-27 16:33N 53°48' E 000°34'1211.4
2015-Jul-27 15:33N 53°38' E 000°22'1010.3
2015-Jul-27 14:33N 53°33' E 000°08'1111.2
2015-Jul-27 13:34N 53°38' W 000°09'1 1.5
2015-Jul-27 12:32N 53°38' W 000°12'0 0.0
2015-Jul-27 11:32N 53°38' W 000°12'0 0.0
2015-Jul-27 10:32N 53°38' W 000°12'0 0.0
2015-Jul-27 09:32N 53°38' W 000°12'0 0.0
2015-Jul-27 08:32N 53°38' W 000°12'0 0.0
2015-Jul-27 07:32N 53°38' W 000°12'0 0.0
2015-Jul-27 06:32N 53°38' W 000°12'0 0.0
2015-Jul-27 05:32N 53°38' W 000°12'0 0.0
2015-Jul-27 04:32N 53°38' W 000°12'0 0.0
2015-Jul-27 03:32N 53°38' W 000°12'0 0.0
2015-Jul-27 02:32N 53°38' W 000°12'0 0.0
2015-Jul-27 01:32N 53°38' W 000°12'0 0.0
2015-Jul-27 00:32N 53°38' W 000°12'0 0.0
2015-Jul-26 23:32N 53°38' W 000°12'0 0.0
2015-Jul-26 22:32N 53°38' W 000°12'0 0.0
2015-Jul-26 21:32N 53°38' W 000°12'0 0.0
2015-Jul-26 20:32N 53°38' W 000°12'0 0.0
2015-Jul-26 19:32N 53°38' W 000°12'0 0.0
2015-Jul-26 18:32N 53°38' W 000°12'0 0.0
2015-Jul-26 17:32N 53°38' W 000°12'0 0.0
2015-Jul-26 16:32N 53°38' W 000°12'0 0.0
2015-Jul-26 15:32N 53°38' W 000°12'0 0.0
2015-Jul-26 14:32N 53°38' W 000°12'0 0.0
2015-Jul-26 13:32N 53°38' W 000°12'0 0.0
2015-Jul-26 12:32N 53°38' W 000°12'0 0.0
2015-Jul-26 11:32N 53°38' W 000°12'0 0.0
2015-Jul-26 10:32N 53°38' W 000°12'0 0.0
2015-Jul-26 09:32N 53°38' W 000°12'0 0.0
2015-Jul-26 08:32N 53°38' W 000°12'0 0.0
2015-Jul-26 07:32N 53°38' W 000°12'0 0.0
2015-Jul-26 06:32N 53°38' W 000°12'0 0.0
2015-Jul-26 05:32N 53°38' W 000°12'0 0.0
2015-Jul-26 04:32N 53°38' W 000°12'0 0.0
2015-Jul-26 03:32N 53°38' W 000°12'0 0.0
2015-Jul-26 02:32N 53°38' W 000°12'0 0.0
2015-Jul-26 01:29N 53°38' W 000°12'0 0.0
2015-Jul-26 00:32N 53°38' W 000°12'0 0.0
2015-Jul-25 23:32N 53°38' W 000°12'0 0.0
2015-Jul-25 22:32N 53°38' W 000°12'0 0.0
2015-Jul-25 21:32N 53°38' W 000°12'0 0.0
2015-Jul-25 20:32N 53°38' W 000°12'0 0.0
2015-Jul-25 19:32N 53°38' W 000°12'0 0.0
2015-Jul-25 18:32N 53°38' W 000°12'0 0.0
2015-Jul-25 17:32N 53°38' W 000°12'0 0.0
2015-Jul-25 16:32N 53°38' W 000°12'0 0.0
2015-Jul-25 15:32N 53°38' W 000°12'0 0.0
2015-Jul-25 14:32N 53°38' W 000°12'0 0.0
2015-Jul-25 13:29N 53°38' W 000°12'0 0.0
2015-Jul-25 12:32N 53°38' W 000°12'0 0.0
2015-Jul-25 11:29N 53°38' W 000°12'0 0.0
2015-Jul-25 10:29N 53°38' W 000°12'0 0.0
2015-Jul-25 09:32N 53°38' W 000°12'0 0.0
2015-Jul-25 08:32N 53°38' W 000°12'0 0.0
2015-Jul-25 07:32N 53°38' W 000°12'0 0.0
2015-Jul-25 06:32N 53°38' W 000°12'0 0.0
2015-Jul-25 05:32N 53°38' W 000°12'0 0.0
2015-Jul-25 04:32N 53°38' W 000°12'0 0.0
2015-Jul-25 03:32N 53°38' W 000°12'0 0.0
2015-Jul-25 02:32N 53°38' W 000°12'0 0.0
2015-Jul-25 01:32N 53°38' W 000°12'0 0.0
2015-Jul-25 00:32N 53°38' W 000°12'0 0.4
2015-Jul-24 23:34N 53°38' W 000°11'5 5.1
2015-Jul-24 22:33N 53°37' W 000°03'9 9.1
2015-Jul-24 21:33N 53°33' E 000°11'1010.1
2015-Jul-24 20:33N 53°41' E 000°22'3 2.8
2015-Jul-24 19:33N 53°42' E 000°27'5 4.7
2015-Jul-24 18:33N 53°45' E 000°32'1 1.3
2015-Jul-24 17:33N 53°46' E 000°33'6 6.1
2015-Jul-24 16:33N 53°51' E 000°39'31010.6
2015-Jul-23 11:25N 56°57' E 007°55'2 2.1
2015-Jul-23 10:32N 56°59' E 007°56'2 2.2
2015-Jul-23 09:32N 56°57' E 007°56'5 5.1
2015-Jul-23 08:33N 57°00' E 007°50'1010.3
2015-Jul-23 07:33N 57°09' E 007°59'6410.2
2015-Jul-23 01:20N 57°48' E 009°33'1810.0
2015-Jul-22 23:30N 57°51' E 010°07'9 9.9
2015-Jul-22 22:33N 57°51' E 010°25'10 9.6
2015-Jul-22 21:33N 57°49' E 010°43'8 8.2
2015-Jul-22 20:32N 57°42' E 010°49'5 2.5
2015-Jul-22 18:30N 57°40' E 010°41'0 0.0
2015-Jul-22 17:24N 57°40' E 010°41'0 0.0
2015-Jul-22 16:30N 57°40' E 010°41'0 0.1
2015-Jul-22 15:33N 57°40' E 010°41'0 0.0
2015-Jul-22 14:33N 57°40' E 010°40'0 0.0
2015-Jul-22 13:33N 57°40' E 010°40'0 0.0
2015-Jul-22 12:33N 57°40' E 010°40'0 0.0
2015-Jul-22 11:21N 57°40' E 010°40'3 3.4
2015-Jul-22 10:33N 57°38' E 010°45'1111.0
2015-Jul-22 09:33N 57°34' E 011°03'1111.4
2015-Jul-22 08:33N 57°29' E 011°23'1211.9
2015-Jul-22 07:33N 57°18' E 011°32'1211.9
2015-Jul-22 06:33N 57°07' E 011°39'1211.5
2015-Jul-22 05:33N 56°56' E 011°46'1111.1
2015-Jul-22 04:33N 56°46' E 011°53'1211.8
2015-Jul-22 03:33N 56°35' E 011°43'8310.4
2015-Jul-21 19:33N 55°14' E 011°06'10 9.6
2015-Jul-21 18:31N 55°05' E 010°59'1110.5
2015-Jul-21 17:31N 54°55' E 010°52'1111.4
2015-Jul-21 16:31N 54°44' E 010°47'9 9.8
2015-Jul-21 15:33N 54°37' E 010°57'1111.1
2015-Jul-21 14:33N 54°34' E 011°16'1111.2
2015-Jul-21 13:33N 54°30' E 011°34'1110.7
2015-Jul-21 12:33N 54°27' E 011°51'1110.8
2015-Jul-21 11:33N 54°27' E 012°10'1110.8
2015-Jul-21 10:33N 54°37' E 012°17'5410.9
2015-Jul-21 05:33N 54°60' E 013°42'1211.7
2015-Jul-21 04:33N 55°04' E 014°02'1111.4
2015-Jul-21 03:33N 55°12' E 014°15'1211.6
2015-Jul-21 02:33N 55°21' E 014°28'1111.4
2015-Jul-21 01:33N 55°28' E 014°44'1211.9
2015-Jul-21 00:33N 55°33' E 015°03'1211.9
2015-Jul-20 23:33N 55°38' E 015°22'1211.7
2015-Jul-20 22:33N 55°42' E 015°42'  

Dump ship's entire track history